sensor_id;sensor_type;location;lat;lon;timestamp;pressure;altitude;pressure_sealevel;temperature;humidity
44385;BME280;30101;32.778;34.994;2022-10-12T00:00:53;97752.94;;;21.68;74.15
44385;BME280;30101;32.778;34.994;2022-10-12T00:11:04;97750.81;;;21.65;74.24
44385;BME280;30101;32.778;34.994;2022-10-12T00:16:10;97746.47;;;21.64;74.34
44385;BME280;30101;32.778;34.994;2022-10-12T00:21:15;97743.50;;;21.60;74.29
44385;BME280;30101;32.778;34.994;2022-10-12T00:26:21;97747.03;;;21.61;74.56
44385;BME280;30101;32.778;34.994;2022-10-12T00:31:26;97739.16;;;21.59;74.48
44385;BME280;30101;32.778;34.994;2022-10-12T00:36:31;97739.44;;;21.58;74.74
44385;BME280;30101;32.778;34.994;2022-10-12T00:41:39;97743.25;;;21.57;74.79
44385;BME280;30101;32.778;34.994;2022-10-12T00:46:47;97741.91;;;21.54;74.74
44385;BME280;30101;32.778;34.994;2022-10-12T00:51:57;97741.09;;;21.53;75.01
44385;BME280;30101;32.778;34.994;2022-10-12T00:57:06;97742.19;;;21.52;75.04
44385;BME280;30101;32.778;34.994;2022-10-12T01:02:11;97746.00;;;21.51;75.14
44385;BME280;30101;32.778;34.994;2022-10-12T01:07:15;97754.16;;;21.51;75.20
44385;BME280;30101;32.778;34.994;2022-10-12T01:12:19;97764.75;;;21.48;75.37
44385;BME280;30101;32.778;34.994;2022-10-12T01:18:05;97749.56;;;21.47;75.34
44385;BME280;30101;32.778;34.994;2022-10-12T01:28:55;97751.75;;;21.45;75.36
44385;BME280;30101;32.778;34.994;2022-10-12T01:34:12;97749.03;;;21.45;75.31
44385;BME280;30101;32.778;34.994;2022-10-12T01:39:26;97744.97;;;21.42;75.48
44385;BME280;30101;32.778;34.994;2022-10-12T01:44:32;97749.34;;;21.38;75.62
44385;BME280;30101;32.778;34.994;2022-10-12T01:49:36;97755.31;;;21.35;75.77
44385;BME280;30101;32.778;34.994;2022-10-12T02:00:13;97757.22;;;21.35;76.00
44385;BME280;30101;32.778;34.994;2022-10-12T02:10:50;97755.91;;;21.32;76.06
44385;BME280;30101;32.778;34.994;2022-10-12T02:15:57;97766.50;;;21.28;76.23
44385;BME280;30101;32.778;34.994;2022-10-12T02:21:03;97774.09;;;21.26;76.25
44385;BME280;30101;32.778;34.994;2022-10-12T02:26:07;97771.38;;;21.26;76.33
44385;BME280;30101;32.778;34.994;2022-10-12T02:31:34;97771.91;;;21.23;76.41
44385;BME280;30101;32.778;34.994;2022-10-12T02:36:46;97770.84;;;21.19;76.64
44385;BME280;30101;32.778;34.994;2022-10-12T02:42:04;97775.47;;;21.19;76.55
44385;BME280;30101;32.778;34.994;2022-10-12T02:47:10;97777.63;;;21.17;76.59
44385;BME280;30101;32.778;34.994;2022-10-12T02:52:14;97777.13;;;21.15;76.74
44385;BME280;30101;32.778;34.994;2022-10-12T02:57:19;97784.72;;;21.13;76.93
44385;BME280;30101;32.778;34.994;2022-10-12T03:02:22;97784.19;;;21.11;76.88
44385;BME280;30101;32.778;34.994;2022-10-12T03:07:25;97787.47;;;21.08;76.92
44385;BME280;30101;32.778;34.994;2022-10-12T03:12:29;97780.13;;;21.03;77.04
44385;BME280;30101;32.778;34.994;2022-10-12T03:17:32;97778.22;;;21.04;77.08
44385;BME280;30101;32.778;34.994;2022-10-12T03:22:36;97771.75;;;20.99;77.14
44385;BME280;30101;32.778;34.994;2022-10-12T03:27:39;97772.00;;;20.98;77.10
44385;BME280;30101;32.778;34.994;2022-10-12T03:32:43;97780.44;;;20.96;77.14
44385;BME280;30101;32.778;34.994;2022-10-12T03:37:47;97770.97;;;20.94;77.20
44385;BME280;30101;32.778;34.994;2022-10-12T03:42:50;97783.16;;;20.91;77.36
44385;BME280;30101;32.778;34.994;2022-10-12T03:47:54;97779.91;;;20.89;77.48
44385;BME280;30101;32.778;34.994;2022-10-12T03:53:02;97770.69;;;20.90;77.28
44385;BME280;30101;32.778;34.994;2022-10-12T03:58:06;97759.00;;;20.90;77.37
44385;BME280;30101;32.778;34.994;2022-10-12T04:03:09;97765.53;;;20.94;77.30
44385;BME280;30101;32.778;34.994;2022-10-12T04:08:13;97755.19;;;20.96;77.06
44385;BME280;30101;32.778;34.994;2022-10-12T04:13:16;97760.91;;;20.99;77.06
44385;BME280;30101;32.778;34.994;2022-10-12T04:18:20;97760.03;;;21.04;76.91
44385;BME280;30101;32.778;34.994;2022-10-12T04:23:24;97759.75;;;21.06;76.94
44385;BME280;30101;32.778;34.994;2022-10-12T04:28:31;97762.47;;;21.11;76.85
44385;BME280;30101;32.778;34.994;2022-10-12T04:33:34;97773.59;;;21.14;76.75
44385;BME280;30101;32.778;34.994;2022-10-12T04:38:37;97770.84;;;21.19;76.70
44385;BME280;30101;32.778;34.994;2022-10-12T04:43:41;97774.38;;;21.25;76.49
44385;BME280;30101;32.778;34.994;2022-10-12T04:48:45;97773.53;;;21.35;76.44
44385;BME280;30101;32.778;34.994;2022-10-12T04:53:48;97773.22;;;21.41;76.32
44385;BME280;30101;32.778;34.994;2022-10-12T04:58:52;97778.91;;;21.50;76.22
44385;BME280;30101;32.778;34.994;2022-10-12T05:03:58;97783.97;;;21.62;75.90
44385;BME280;30101;32.778;34.994;2022-10-12T05:09:17;97793.28;;;21.95;75.90
44385;BME280;30101;32.778;34.994;2022-10-12T05:14:21;97799.53;;;22.34;75.38
44385;BME280;30101;32.778;34.994;2022-10-12T05:19:24;97798.25;;;22.85;74.21
44385;BME280;30101;32.778;34.994;2022-10-12T05:24:27;97807.78;;;23.11;73.49
44385;BME280;30101;32.778;34.994;2022-10-12T05:29:31;97808.78;;;23.21;72.67
44385;BME280;30101;32.778;34.994;2022-10-12T05:34:34;97811.19;;;23.22;72.59
44385;BME280;30101;32.778;34.994;2022-10-12T05:39:38;97813.13;;;23.22;72.36
44385;BME280;30101;32.778;34.994;2022-10-12T05:44:42;97813.69;;;23.19;72.10
44385;BME280;30101;32.778;34.994;2022-10-12T05:49:45;97824.06;;;23.17;71.71
44385;BME280;30101;32.778;34.994;2022-10-12T05:54:49;97825.94;;;23.21;71.49
44385;BME280;30101;32.778;34.994;2022-10-12T05:59:53;97822.44;;;23.39;70.93
44385;BME280;30101;32.778;34.994;2022-10-12T06:04:57;97838.94;;;23.48;70.96
44385;BME280;30101;32.778;34.994;2022-10-12T06:10:01;97830.13;;;23.56;70.31
44385;BME280;30101;32.778;34.994;2022-10-12T06:21:05;97846.03;;;23.73;70.11
44385;BME280;30101;32.778;34.994;2022-10-12T06:26:29;97839.84;;;23.86;69.85
44385;BME280;30101;32.778;34.994;2022-10-12T06:31:32;97843.81;;;23.94;69.56
44385;BME280;30101;32.778;34.994;2022-10-12T06:36:38;97841.03;;;23.99;69.72
44385;BME280;30101;32.778;34.994;2022-10-12T06:41:41;97836.91;;;24.02;69.49
44385;BME280;30101;32.778;34.994;2022-10-12T06:46:45;97838.09;;;23.95;69.26
44385;BME280;30101;32.778;34.994;2022-10-12T06:51:48;97833.88;;;23.84;69.23
44385;BME280;30101;32.778;34.994;2022-10-12T06:56:52;97840.44;;;23.83;69.13
44385;BME280;30101;32.778;34.994;2022-10-12T07:02:00;97842.00;;;24.08;69.07
44385;BME280;30101;32.778;34.994;2022-10-12T07:07:04;97841.75;;;24.42;68.35
44385;BME280;30101;32.778;34.994;2022-10-12T07:12:08;97846.41;;;24.74;67.70
44385;BME280;30101;32.778;34.994;2022-10-12T07:17:12;97840.47;;;25.00;67.35
44385;BME280;30101;32.778;34.994;2022-10-12T07:22:17;97835.00;;;25.00;66.57
44385;BME280;30101;32.778;34.994;2022-10-12T07:27:21;97842.06;;;24.87;66.77
44385;BME280;30101;32.778;34.994;2022-10-12T07:32:24;97836.63;;;24.87;66.59
44385;BME280;30101;32.778;34.994;2022-10-12T07:37:27;97833.31;;;24.90;66.45
44385;BME280;30101;32.778;34.994;2022-10-12T07:42:31;97833.47;;;24.80;66.40
44385;BME280;30101;32.778;34.994;2022-10-12T07:47:37;97831.94;;;24.74;66.11
44385;BME280;30101;32.778;34.994;2022-10-12T07:52:43;97834.69;;;24.88;65.84
44385;BME280;30101;32.778;34.994;2022-10-12T07:57:47;97831.69;;;25.03;65.78
44385;BME280;30101;32.778;34.994;2022-10-12T08:02:51;97834.66;;;25.20;65.48
44385;BME280;30101;32.778;34.994;2022-10-12T08:07:54;97829.09;;;25.25;65.13
44385;BME280;30101;32.778;34.994;2022-10-12T08:12:58;97833.97;;;25.15;65.05
44385;BME280;30101;32.778;34.994;2022-10-12T08:18:03;97838.09;;;25.12;65.05
44385;BME280;30101;32.778;34.994;2022-10-12T08:23:07;97839.00;;;25.08;65.22
44385;BME280;30101;32.778;34.994;2022-10-12T08:28:14;97833.84;;;25.20;65.01
44385;BME280;30101;32.778;34.994;2022-10-12T08:33:18;97829.72;;;25.22;64.54
44385;BME280;30101;32.778;34.994;2022-10-12T08:38:22;97831.50;;;25.13;64.63
44385;BME280;30101;32.778;34.994;2022-10-12T08:49:04;97814.63;;;25.11;64.60
44385;BME280;30101;32.778;34.994;2022-10-12T08:54:18;97830.63;;;25.18;64.53
44385;BME280;30101;32.778;34.994;2022-10-12T08:59:21;97827.06;;;25.17;64.43
44385;BME280;30101;32.778;34.994;2022-10-12T09:10:12;97822.41;;;25.32;64.44
44385;BME280;30101;32.778;34.994;2022-10-12T09:15:30;97815.94;;;25.41;64.51
44385;BME280;30101;32.778;34.994;2022-10-12T09:20:46;97814.38;;;25.63;64.05
44385;BME280;30101;32.778;34.994;2022-10-12T09:25:52;97803.13;;;25.64;63.67
44385;BME280;30101;32.778;34.994;2022-10-12T09:31:03;97792.31;;;25.59;63.84
44385;BME280;30101;32.778;34.994;2022-10-12T09:36:11;97796.00;;;25.41;64.09
44385;BME280;30101;32.778;34.994;2022-10-12T09:46:34;97780.41;;;25.41;64.42
44385;BME280;30101;32.778;34.994;2022-10-12T09:51:40;97778.13;;;25.57;64.51
44385;BME280;30101;32.778;34.994;2022-10-12T09:56:49;97771.75;;;25.75;63.71
44385;BME280;30101;32.778;34.994;2022-10-12T10:07:37;97759.00;;;25.57;63.40
44385;BME280;30101;32.778;34.994;2022-10-12T10:17:57;97760.31;;;25.60;63.01
44385;BME280;30101;32.778;34.994;2022-10-12T10:23:03;97760.44;;;25.54;62.96
44385;BME280;30101;32.778;34.994;2022-10-12T10:28:26;97755.38;;;25.48;62.99
44385;BME280;30101;32.778;34.994;2022-10-12T10:33:34;97757.91;;;25.44;63.38
44385;BME280;30101;32.778;34.994;2022-10-12T10:39:05;97748.59;;;25.45;62.99
44385;BME280;30101;32.778;34.994;2022-10-12T10:44:32;97742.09;;;25.55;62.56
44385;BME280;30101;32.778;34.994;2022-10-12T10:49:42;97733.09;;;25.54;62.92
44385;BME280;30101;32.778;34.994;2022-10-12T11:00:19;97737.06;;;25.48;62.79
44385;BME280;30101;32.778;34.994;2022-10-12T11:05:56;97729.75;;;25.44;62.43
44385;BME280;30101;32.778;34.994;2022-10-12T11:11:05;97721.66;;;25.39;62.72
44385;BME280;30101;32.778;34.994;2022-10-12T11:16:35;97717.94;;;25.35;62.59
44385;BME280;30101;32.778;34.994;2022-10-12T11:21:47;97718.13;;;25.38;62.90
44385;BME280;30101;32.778;34.994;2022-10-12T11:27:08;97720.16;;;25.46;62.42
44385;BME280;30101;32.778;34.994;2022-10-12T11:32:35;97706.59;;;25.41;62.76
44385;BME280;30101;32.778;34.994;2022-10-12T11:37:56;97709.75;;;25.35;62.28
44385;BME280;30101;32.778;34.994;2022-10-12T11:43:05;97708.00;;;25.39;62.33
44385;BME280;30101;32.778;34.994;2022-10-12T11:48:14;97702.22;;;25.54;62.10
44385;BME280;30101;32.778;34.994;2022-10-12T11:53:41;97703.75;;;25.82;62.00
44385;BME280;30101;32.778;34.994;2022-10-12T11:58:50;97697.66;;;25.86;61.89
44385;BME280;30101;32.778;34.994;2022-10-12T12:04:28;97699.03;;;25.74;61.95
44385;BME280;30101;32.778;34.994;2022-10-12T12:09:48;97698.72;;;25.62;61.93
44385;BME280;30101;32.778;34.994;2022-10-12T12:19:59;97687.16;;;25.79;61.92
44385;BME280;30101;32.778;34.994;2022-10-12T12:35:49;97697.56;;;25.77;61.92
44385;BME280;30101;32.778;34.994;2022-10-12T12:41:04;97695.56;;;25.69;62.10
44385;BME280;30101;32.778;34.994;2022-10-12T12:46:11;97696.47;;;25.64;62.39
44385;BME280;30101;32.778;34.994;2022-10-12T12:51:22;97685.94;;;25.71;62.37
44385;BME280;30101;32.778;34.994;2022-10-12T13:12:31;97699.91;;;25.84;62.29
44385;BME280;30101;32.778;34.994;2022-10-12T13:17:38;97694.81;;;25.91;61.85
44385;BME280;30101;32.778;34.994;2022-10-12T13:22:54;97698.78;;;25.85;62.45
44385;BME280;30101;32.778;34.994;2022-10-12T13:28:02;97693.44;;;25.79;62.36
44385;BME280;30101;32.778;34.994;2022-10-12T13:43:25;97691.56;;;25.89;61.93
44385;BME280;30101;32.778;34.994;2022-10-12T13:48:29;97696.78;;;25.76;61.85
44385;BME280;30101;32.778;34.994;2022-10-12T13:53:53;97686.59;;;25.54;62.04
44385;BME280;30101;32.778;34.994;2022-10-12T13:59:02;97697.38;;;25.37;62.77
44385;BME280;30101;32.778;34.994;2022-10-12T14:04:12;97692.34;;;25.31;62.32
44385;BME280;30101;32.778;34.994;2022-10-12T14:09:20;97688.72;;;25.21;62.76
44385;BME280;30101;32.778;34.994;2022-10-12T14:14:29;97691.19;;;25.09;62.64
44385;BME280;30101;32.778;34.994;2022-10-12T14:19:45;97688.81;;;25.02;62.90
44385;BME280;30101;32.778;34.994;2022-10-12T14:24:53;97688.94;;;24.97;63.06
44385;BME280;30101;32.778;34.994;2022-10-12T14:30:27;97690.47;;;24.90;62.78
44385;BME280;30101;32.778;34.994;2022-10-12T14:35:32;97694.41;;;24.84;62.92
44385;BME280;30101;32.778;34.994;2022-10-12T14:40:37;97691.88;;;24.73;63.12
44385;BME280;30101;32.778;34.994;2022-10-12T14:45:41;97697.81;;;24.62;62.97
44385;BME280;30101;32.778;34.994;2022-10-12T14:50:45;97697.81;;;24.48;63.33
44385;BME280;30101;32.778;34.994;2022-10-12T14:55:48;97692.09;;;24.31;63.47
44385;BME280;30101;32.778;34.994;2022-10-12T15:00:56;97699.22;;;24.13;63.88
44385;BME280;30101;32.778;34.994;2022-10-12T15:05:59;97697.88;;;23.97;64.52
44385;BME280;30101;32.778;34.994;2022-10-12T15:11:03;97698.84;;;23.87;64.33
44385;BME280;30101;32.778;34.994;2022-10-12T15:16:17;97704.75;;;23.75;64.57
44385;BME280;30101;32.778;34.994;2022-10-12T15:21:21;97698.13;;;23.62;64.74
44385;BME280;30101;32.778;34.994;2022-10-12T15:26:27;97697.47;;;23.52;65.09
44385;BME280;30101;32.778;34.994;2022-10-12T15:31:31;97698.72;;;23.40;65.23
44385;BME280;30101;32.778;34.994;2022-10-12T15:36:34;97705.63;;;23.33;65.51
44385;BME280;30101;32.778;34.994;2022-10-12T15:41:38;97700.81;;;23.25;65.47
44385;BME280;30101;32.778;34.994;2022-10-12T15:46:43;97697.66;;;23.18;65.62
44385;BME280;30101;32.778;34.994;2022-10-12T15:51:52;97697.22;;;23.10;65.67
44385;BME280;30101;32.778;34.994;2022-10-12T15:56:56;97707.34;;;23.05;65.84
44385;BME280;30101;32.778;34.994;2022-10-12T16:02:00;97698.75;;;22.98;65.78
44385;BME280;30101;32.778;34.994;2022-10-12T16:07:07;97699.59;;;22.93;66.06
44385;BME280;30101;32.778;34.994;2022-10-12T16:12:11;97710.59;;;22.88;65.98
44385;BME280;30101;32.778;34.994;2022-10-12T16:17:15;97709.50;;;22.84;66.25
44385;BME280;30101;32.778;34.994;2022-10-12T16:22:19;97705.72;;;22.80;66.29
44385;BME280;30101;32.778;34.994;2022-10-12T16:27:23;97718.03;;;22.77;66.37
44385;BME280;30101;32.778;34.994;2022-10-12T16:32:27;97723.81;;;22.71;66.36
44385;BME280;30101;32.778;34.994;2022-10-12T16:37:30;97714.88;;;22.65;66.58
44385;BME280;30101;32.778;34.994;2022-10-12T16:42:35;97731.78;;;22.62;66.74
44385;BME280;30101;32.778;34.994;2022-10-12T16:47:38;97720.38;;;22.60;66.70
44385;BME280;30101;32.778;34.994;2022-10-12T16:52:46;97730.22;;;22.56;66.65
44385;BME280;30101;32.778;34.994;2022-10-12T16:57:49;97729.19;;;22.52;66.72
44385;BME280;30101;32.778;34.994;2022-10-12T17:02:52;97730.03;;;22.47;66.79
44385;BME280;30101;32.778;34.994;2022-10-12T17:08:00;97733.34;;;22.44;66.85
44385;BME280;30101;32.778;34.994;2022-10-12T17:13:05;97749.41;;;22.41;66.78
44385;BME280;30101;32.778;34.994;2022-10-12T17:18:09;97747.25;;;22.38;66.86
44385;BME280;30101;32.778;34.994;2022-10-12T17:23:12;97749.47;;;22.35;66.66
44385;BME280;30101;32.778;34.994;2022-10-12T17:28:17;97748.66;;;22.35;66.71
44385;BME280;30101;32.778;34.994;2022-10-12T17:33:21;97747.03;;;22.34;66.77
44385;BME280;30101;32.778;34.994;2022-10-12T17:38:25;97744.06;;;22.30;66.56
44385;BME280;30101;32.778;34.994;2022-10-12T17:43:29;97743.25;;;22.30;66.67
44385;BME280;30101;32.778;34.994;2022-10-12T17:48:33;97749.81;;;22.29;66.71
44385;BME280;30101;32.778;34.994;2022-10-12T17:53:38;97760.38;;;22.30;66.73
44385;BME280;30101;32.778;34.994;2022-10-12T17:58:42;97750.09;;;22.27;66.89
44385;BME280;30101;32.778;34.994;2022-10-12T18:03:48;97761.78;;;22.28;66.93
44385;BME280;30101;32.778;34.994;2022-10-12T18:08:52;97757.44;;;22.27;67.01
44385;BME280;30101;32.778;34.994;2022-10-12T18:13:56;97754.19;;;22.25;66.97
44385;BME280;30101;32.778;34.994;2022-10-12T18:19:01;97759.09;;;22.23;67.22
44385;BME280;30101;32.778;34.994;2022-10-12T18:24:06;97753.66;;;22.23;67.15
44385;BME280;30101;32.778;34.994;2022-10-12T18:29:15;97764.84;;;22.21;67.37
44385;BME280;30101;32.778;34.994;2022-10-12T18:34:19;97758.59;;;22.21;67.48
44385;BME280;30101;32.778;34.994;2022-10-12T18:39:23;97757.81;;;22.15;67.48
44385;BME280;30101;32.778;34.994;2022-10-12T18:44:26;97756.75;;;22.06;67.45
44385;BME280;30101;32.778;34.994;2022-10-12T18:49:30;97755.34;;;21.74;67.93
44385;BME280;30101;32.778;34.994;2022-10-12T18:54:34;97756.59;;;21.48;68.77
44385;BME280;30101;32.778;34.994;2022-10-12T18:59:37;97754.25;;;21.26;69.42
44385;BME280;30101;32.778;34.994;2022-10-12T19:04:41;97754.88;;;21.13;69.70
44385;BME280;30101;32.778;34.994;2022-10-12T19:09:45;97758.44;;;21.03;70.13
44385;BME280;30101;32.778;34.994;2022-10-12T19:14:49;97754.38;;;20.95;70.73
44385;BME280;30101;32.778;34.994;2022-10-12T19:19:52;97757.38;;;20.94;70.88
44385;BME280;30101;32.778;34.994;2022-10-12T19:24:56;97755.47;;;20.94;71.21
44385;BME280;30101;32.778;34.994;2022-10-12T19:29:59;97759.28;;;20.93;71.13
44385;BME280;30101;32.778;34.994;2022-10-12T19:35:05;97749.78;;;20.96;71.38
44385;BME280;30101;32.778;34.994;2022-10-12T19:40:09;97745.44;;;20.95;71.71
44385;BME280;30101;32.778;34.994;2022-10-12T19:45:13;97748.66;;;20.97;71.81
44385;BME280;30101;32.778;34.994;2022-10-12T19:50:17;97744.56;;;21.05;71.94
44385;BME280;30101;32.778;34.994;2022-10-12T19:55:20;97749.97;;;21.15;72.04
44385;BME280;30101;32.778;34.994;2022-10-12T20:00:24;97746.38;;;21.24;72.07
44385;BME280;30101;32.778;34.994;2022-10-12T20:05:28;97759.72;;;21.31;72.01
44385;BME280;30101;32.778;34.994;2022-10-12T20:10:32;97755.88;;;21.37;72.04
44385;BME280;30101;32.778;34.994;2022-10-12T20:15:38;97744.16;;;21.42;72.10
44385;BME280;30101;32.778;34.994;2022-10-12T20:20:42;97739.78;;;21.46;72.43
44385;BME280;30101;32.778;34.994;2022-10-12T20:25:48;97744.41;;;21.45;72.52
44385;BME280;30101;32.778;34.994;2022-10-12T20:30:57;97742.22;;;21.47;72.39
44385;BME280;30101;32.778;34.994;2022-10-12T20:36:01;97736.25;;;21.45;72.63
44385;BME280;30101;32.778;34.994;2022-10-12T20:41:10;97732.75;;;21.45;73.37
44385;BME280;30101;32.778;34.994;2022-10-12T20:46:17;97743.34;;;21.41;72.88
44385;BME280;30101;32.778;34.994;2022-10-12T20:51:24;97745.53;;;21.39;72.78
44385;BME280;30101;32.778;34.994;2022-10-12T20:56:30;97743.09;;;21.38;73.10
44385;BME280;30101;32.778;34.994;2022-10-12T21:01:36;97741.72;;;21.40;73.02
44385;BME280;30101;32.778;34.994;2022-10-12T21:06:40;97738.44;;;21.43;73.02
44385;BME280;30101;32.778;34.994;2022-10-12T21:11:43;97743.31;;;21.46;72.79
44385;BME280;30101;32.778;34.994;2022-10-12T21:16:46;97742.19;;;21.52;72.80
44385;BME280;30101;32.778;34.994;2022-10-12T21:21:49;97745.13;;;21.61;72.67
44385;BME280;30101;32.778;34.994;2022-10-12T21:26:54;97733.69;;;21.64;72.54
44385;BME280;30101;32.778;34.994;2022-10-12T21:31:57;97739.34;;;21.73;72.52
44385;BME280;30101;32.778;34.994;2022-10-12T21:37:01;97733.06;;;21.77;72.28
44385;BME280;30101;32.778;34.994;2022-10-12T21:42:04;97735.78;;;21.77;72.31
44385;BME280;30101;32.778;34.994;2022-10-12T21:47:08;97725.19;;;21.76;72.29
44385;BME280;30101;32.778;34.994;2022-10-12T21:52:16;97735.78;;;21.77;72.18
44385;BME280;30101;32.778;34.994;2022-10-12T21:57:20;97727.34;;;21.79;72.06
44385;BME280;30101;32.778;34.994;2022-10-12T22:02:23;97722.19;;;21.77;72.08
44385;BME280;30101;32.778;34.994;2022-10-12T22:07:26;97724.91;;;21.77;71.81
44385;BME280;30101;32.778;34.994;2022-10-12T22:12:30;97726.81;;;21.77;71.84
44385;BME280;30101;32.778;34.994;2022-10-12T22:17:34;97722.47;;;21.76;71.76
44385;BME280;30101;32.778;34.994;2022-10-12T22:22:43;97717.03;;;21.76;71.65
44385;BME280;30101;32.778;34.994;2022-10-12T22:27:47;97729.81;;;21.75;71.57
44385;BME280;30101;32.778;34.994;2022-10-12T22:32:50;97721.69;;;21.70;71.51
44385;BME280;30101;32.778;34.994;2022-10-12T22:37:54;97725.53;;;21.69;71.27
44385;BME280;30101;32.778;34.994;2022-10-12T22:42:57;97717.38;;;21.69;71.29
44385;BME280;30101;32.778;34.994;2022-10-12T22:48:02;97715.50;;;21.65;71.23
44385;BME280;30101;32.778;34.994;2022-10-12T22:53:06;97718.22;;;21.60;71.20
44385;BME280;30101;32.778;34.994;2022-10-12T22:58:10;97722.06;;;21.59;71.12
44385;BME280;30101;32.778;34.994;2022-10-12T23:03:20;97723.13;;;21.63;71.02
44385;BME280;30101;32.778;34.994;2022-10-12T23:08:24;97717.38;;;21.69;70.71
44385;BME280;30101;32.778;34.994;2022-10-12T23:13:28;97715.13;;;21.76;70.64
44385;BME280;30101;32.778;34.994;2022-10-12T23:18:31;97709.09;;;21.85;70.40
44385;BME280;30101;32.778;34.994;2022-10-12T23:23:36;97704.41;;;21.90;70.29
44385;BME280;30101;32.778;34.994;2022-10-12T23:28:58;97708.22;;;21.94;70.22
44385;BME280;30101;32.778;34.994;2022-10-12T23:34:03;97707.91;;;21.96;70.15
44385;BME280;30101;32.778;34.994;2022-10-12T23:39:09;97709.28;;;21.93;70.42
44385;BME280;30101;32.778;34.994;2022-10-12T23:44:13;97704.72;;;21.89;70.58
44385;BME280;30101;32.778;34.994;2022-10-12T23:49:16;97707.44;;;21.89;70.73
44385;BME280;30101;32.778;34.994;2022-10-12T23:54:22;97706.06;;;21.86;70.75
44385;BME280;30101;32.778;34.994;2022-10-12T23:59:26;97706.09;;;21.81;70.74
